Time;durP1;ratioP1;P1;durP2;ratioP2;P2;SDS_P1;SDS_P2;PMS_P1;PMS_P2;Temp;Humidity;BMP_temperature;BMP_pressure;BME280_temperature;BME280_humidity;BME280_pressure;Samples;Min_cycle;Max_cycle;Signal;HPM_P1;HPM_P2
2021/11/10 00:00:31;;;;;;;8.23;4.38;;;3.50;99.90;;;1.57;99.86;102180.00;2566912;30;137220;-38
2021/11/10 00:03:00;;;;;;;9.30;4.50;;;3.50;99.90;;;1.53;100.00;102184.75;2568583;30;137290;-38
2021/11/10 00:05:27;;;;;;;8.90;4.30;;;3.40;99.90;;;1.57;99.89;102182.69;2568057;30;138207;-38
2021/11/10 00:07:55;;;;;;;10.52;4.63;;;3.40;99.90;;;1.62;99.91;102185.03;2567356;30;138733;-38
2021/11/10 00:10:23;;;;;;;;;;;3.40;99.90;;;1.63;100.00;102182.22;2567328;30;137338;-38
2021/11/10 00:12:52;;;;;;;8.38;4.43;;;3.50;99.90;;;1.66;100.00;102170.38;2567944;30;137264;-38
2021/11/10 00:15:19;;;;;;;8.07;4.15;;;3.50;99.90;;;1.69;100.00;102159.34;2568169;30;137676;-38
2021/11/10 00:17:47;;;;;;;7.60;4.00;;;3.50;99.90;;;1.70;100.00;102153.84;2568142;30;138154;-39
2021/11/10 00:20:15;;;;;;;10.48;4.28;;;3.50;99.90;;;1.71;100.00;102149.31;2567333;30;137253;-39
2021/11/10 00:22:42;;;;;;;8.90;3.90;;;3.60;99.90;;;1.65;100.00;102158.72;2567946;30;137848;-38
2021/11/10 00:25:10;;;;;;;8.77;3.83;;;3.50;99.90;;;1.58;99.84;102168.25;2565968;30;137701;-38
2021/11/10 00:27:38;;;;;;;10.48;3.88;;;3.40;99.90;;;1.56;100.00;102159.47;2568684;30;137033;-38
2021/11/10 00:30:06;;;;;;;7.40;3.83;;;3.40;99.90;;;1.54;100.00;102154.19;2568513;30;137023;-38
2021/11/10 00:32:34;;;;;;;8.43;4.60;;;3.40;99.90;;;1.52;100.00;102148.06;2568797;30;140592;-38
2021/11/10 00:35:04;;;;;;;9.45;4.30;;;3.40;99.90;;;1.47;100.00;102155.66;2568571;30;137448;-38
2021/11/10 00:37:31;;;;;;;7.80;3.53;;;3.30;99.90;;;1.42;100.00;102157.84;2568112;30;138478;-39
2021/11/10 00:39:59;;;;;;;8.35;3.67;;;3.30;99.90;;;1.39;100.00;102158.94;2567633;30;138793;-38
2021/11/10 00:42:27;;;;;;;8.43;4.15;;;3.30;99.90;;;1.43;100.00;102156.88;2568555;30;138159;-38
2021/11/10 00:44:55;;;;;;;7.22;4.13;;;3.30;99.90;;;1.42;100.00;102165.91;2565424;30;137836;-38
2021/11/10 00:47:23;;;;;;;7.00;4.20;;;3.30;99.90;;;1.41;100.00;102169.59;2567757;30;139023;-38
2021/11/10 00:49:50;;;;;;;12.82;4.80;;;3.30;99.90;;;1.40;100.00;102165.19;2564084;30;137505;-38
2021/11/10 00:52:18;;;;;;;8.70;4.07;;;3.30;99.90;;;1.42;100.00;102160.53;2567113;30;139216;-38
2021/11/10 00:54:45;;;;;;;8.30;3.90;;;3.30;99.90;;;1.48;100.00;102151.97;2563983;30;138938;-38
2021/11/10 00:57:13;;;;;;;8.98;4.00;;;3.30;99.90;;;1.47;100.00;102144.88;2568287;30;139435;-38
2021/11/10 00:59:41;;;;;;;9.43;4.22;;;3.30;99.90;;;1.51;100.00;102156.28;2565050;30;137582;-38
2021/11/10 01:02:09;;;;;;;9.85;4.22;;;3.30;99.90;;;1.54;100.00;102140.72;2566918;30;140622;-38
2021/11/10 01:04:39;;;;;;;7.40;4.18;;;3.40;99.90;;;1.62;100.00;102142.00;2567299;30;137455;-38
2021/11/10 01:07:07;;;;;;;10.55;4.63;;;3.40;99.90;;;1.63;100.00;102143.69;2567886;30;138069;-38
2021/11/10 01:09:43;;;;;;;;;;;3.50;99.90;;;1.69;100.00;102148.59;2568063;30;137712;-38
2021/11/10 01:12:13;;;;;;;10.80;4.50;;;3.50;99.90;;;1.73;100.00;102144.69;2567834;30;140308;-38
2021/11/10 01:14:42;;;;;;;9.68;4.40;;;3.60;99.90;;;1.76;100.00;102140.91;2568446;30;138871;-38
2021/11/10 01:17:13;;;;;;;9.15;3.95;;;3.60;99.90;;;1.79;100.00;102133.41;2565223;30;138325;-38
2021/11/10 01:19:40;;;;;;;11.20;4.45;;;3.60;99.90;;;1.81;100.00;102134.16;2566805;30;139307;-38
2021/11/10 01:22:10;;;;;;;9.18;4.28;;;3.60;99.90;;;1.76;100.00;102130.13;2566836;30;139362;-38
2021/11/10 01:24:38;;;;;;;;;;;3.60;99.90;;;1.84;100.00;102136.59;2567990;30;137152;-38
2021/11/10 01:27:07;;;;;;;9.38;4.13;;;3.70;99.90;;;1.85;100.00;102130.22;2566461;30;139249;-38
2021/11/10 01:29:40;;;;;;;10.77;4.60;;;3.70;99.90;;;1.88;100.00;102120.22;2567592;30;138812;-38
2021/11/10 01:32:08;;;;;;;;;;;3.70;99.90;;;1.93;100.00;102124.22;2567998;30;139002;-38
2021/11/10 01:34:39;;;;;;;8.43;4.20;;;3.80;99.90;;;1.96;100.00;102131.22;2568448;30;137595;-38
2021/11/10 01:37:11;;;;;;;8.30;4.25;;;3.80;99.90;;;1.99;100.00;102128.28;2569462;30;136933;-39
2021/11/10 01:39:39;;;;;;;8.15;4.10;;;3.80;99.90;;;1.98;100.00;102113.94;2567708;30;138969;-38
2021/11/10 01:42:11;;;;;;;8.23;4.47;;;3.80;99.90;;;2.01;100.00;102118.22;2566311;30;138220;-38
2021/11/10 01:44:45;;;;;;;8.82;4.03;;;3.80;99.90;;;2.00;100.00;102113.84;2567469;30;138987;-38
2021/11/10 01:47:13;;;;;;;9.98;3.95;;;3.80;99.90;;;1.99;100.00;102107.59;2568936;30;139334;-38
2021/11/10 01:49:43;;;;;;;10.00;4.20;;;3.80;99.90;;;2.03;100.00;102110.03;2567070;30;139831;-39
2021/11/10 01:52:14;;;;;;;6.88;3.92;;;3.80;99.90;;;2.02;100.00;102117.25;2567166;30;139725;-38
2021/11/10 01:54:43;;;;;;;8.23;4.18;;;3.90;99.90;;;2.00;100.00;102121.91;2567645;30;137908;-38
2021/11/10 01:57:18;;;;;;;9.63;3.88;;;3.80;99.90;;;1.97;100.00;102108.69;2566916;30;138293;-38
2021/11/10 02:00:20;;;;;;;10.13;3.92;;;3.80;99.90;;;1.93;100.00;102105.38;2568086;30;137427;-38
2021/11/10 02:02:48;;;;;;;9.63;4.20;;;3.80;99.90;;;1.90;100.00;102096.72;2568902;30;137177;-38
2021/11/10 02:05:49;;;;;;;7.32;3.72;;;3.80;99.90;;;1.78;100.00;102083.25;2568122;30;137061;-38
2021/11/10 02:08:44;;;;;;;7.70;3.90;;;3.70;99.90;;;1.73;100.00;102088.16;2567186;30;137016;-38
2021/11/10 02:11:23;;;;;;;7.78;3.75;;;3.60;99.90;;;1.66;100.00;102086.94;2568208;30;137469;-38
2021/11/10 02:14:02;;;;;;;5.10;3.15;;;3.60;99.90;;;1.58;100.00;102093.78;2567862;30;139335;-38
2021/11/10 02:16:29;;;;;;;6.80;3.60;;;3.50;99.90;;;1.47;100.00;102098.31;2565388;30;137850;-38
2021/11/10 02:18:59;;;;;;;6.25;3.22;;;3.40;99.90;;;1.37;100.00;102090.97;2568334;30;139915;-38
2021/11/10 02:21:31;;;;;;;7.05;3.50;;;3.30;99.90;;;1.31;100.00;102082.50;2568077;30;137524;-38
2021/11/10 02:24:01;;;;;;;6.97;3.28;;;3.20;99.90;;;1.23;100.00;102083.13;2568629;30;139397;-38
2021/11/10 02:26:30;;;;;;;7.78;3.38;;;3.10;99.90;;;1.15;100.00;102075.66;2568887;30;137619;-38
2021/11/10 02:28:57;;;;;;;7.07;3.50;;;3.10;99.90;;;1.05;100.00;102088.97;2568359;30;138425;-38
2021/11/10 02:31:26;;;;;;;7.45;3.90;;;3.00;99.90;;;0.99;100.00;102092.97;2569307;30;137404;-38
2021/11/10 02:33:53;;;;;;;;;;;2.90;99.90;;;0.94;100.00;102084.41;2567826;30;138765;-38
2021/11/10 02:36:21;;;;;;;6.30;3.50;;;2.80;99.90;;;0.95;100.00;102088.81;2566902;30;138946;-38
2021/11/10 02:38:49;;;;;;;8.43;3.80;;;2.90;99.90;;;0.96;100.00;102092.38;2566952;30;139093;-38
2021/11/10 02:41:16;;;;;;;8.65;4.13;;;2.80;99.90;;;1.02;100.00;102085.63;2567825;30;139110;-38
2021/11/10 02:43:44;;;;;;;8.07;4.50;;;2.90;99.90;;;1.09;100.00;102076.16;2568729;30;137455;-38
2021/11/10 02:46:13;;;;;;;8.60;4.50;;;2.90;99.90;;;1.08;100.00;102071.75;2568529;30;137180;-38
2021/11/10 02:48:41;;;;;;;9.60;4.60;;;2.90;99.90;;;1.08;100.00;102079.81;2566277;30;139586;-38
2021/11/10 02:51:08;;;;;;;7.32;4.00;;;2.90;99.90;;;1.05;100.00;102093.47;2567151;30;138979;-38
2021/11/10 02:53:36;;;;;;;11.20;4.60;;;2.90;99.90;;;1.07;100.00;102083.47;2567357;30;137531;-38
2021/11/10 02:56:04;;;;;;;9.15;4.57;;;2.90;99.90;;;1.10;100.00;102094.00;2568079;30;138442;-38
2021/11/10 02:58:37;;;;;;;11.07;4.68;;;2.90;99.90;;;1.10;100.00;102083.25;2566950;30;138130;-38
2021/11/10 03:01:07;;;;;;;11.57;5.00;;;3.00;99.90;;;1.19;100.00;102090.56;2568300;30;137503;-38
2021/11/10 03:03:35;;;;;;;6.38;4.15;;;3.00;99.90;;;1.20;100.00;102097.66;2568184;30;139227;-38
2021/11/10 03:06:03;;;;;;;8.73;4.57;;;3.10;99.90;;;1.24;100.00;102093.75;2566922;30;138807;-38
2021/11/10 03:08:33;;;;;;;13.27;4.57;;;3.10;99.90;;;1.30;100.00;102092.44;2569075;30;140369;-38
2021/11/10 03:11:29;;;;;;;9.73;4.03;;;3.10;99.90;;;1.39;100.00;102105.13;2566594;30;138804;-39
2021/11/10 03:13:57;;;;;;;11.07;4.60;;;3.20;99.90;;;1.47;100.00;102099.16;2565117;30;139313;-40
2021/11/10 03:16:24;;;;;;;8.75;4.70;;;3.30;99.90;;;1.51;100.00;102097.09;2567859;30;138800;-40
2021/11/10 03:18:52;;;;;;;9.85;4.72;;;3.30;99.90;;;1.57;100.00;102097.44;2567188;30;140970;-40
2021/11/10 03:21:22;;;;;;;9.70;4.78;;;3.40;99.90;;;1.62;100.00;102093.56;2569947;30;139831;-39
2021/11/10 03:23:50;;;;;;;9.93;4.85;;;3.40;99.90;;;1.61;100.00;102100.75;2570211;30;138348;-39
2021/11/10 03:26:20;;;;;;;10.20;4.53;;;3.40;99.90;;;1.68;100.00;102096.59;2568707;30;137323;-39
2021/11/10 03:28:48;;;;;;;8.55;4.07;;;3.50;99.90;;;1.75;100.00;102094.28;2569270;30;139891;-40
2021/11/10 03:31:17;;;;;;;9.05;4.97;;;3.50;99.90;;;1.90;100.00;102091.34;2570067;30;137578;-39
2021/11/10 03:33:46;;;;;;;10.15;4.80;;;3.60;99.90;;;1.87;100.00;102097.81;2568938;30;139669;-40
2021/11/10 03:36:15;;;;;;;10.77;5.10;;;3.70;99.90;;;1.84;100.00;102090.84;2571599;30;138776;-39
2021/11/10 03:38:43;;;;;;;10.02;4.88;;;3.70;99.90;;;1.89;100.00;102095.84;2569061;30;138423;-39
2021/11/10 03:41:15;;;;;;;11.25;5.10;;;3.70;99.90;;;1.89;100.00;102095.00;2570344;30;139002;-39
2021/11/10 03:43:42;;;;;;;11.23;5.05;;;3.70;99.90;;;1.88;100.00;102093.31;2570170;30;140007;-39
2021/11/10 03:46:10;;;;;;;10.25;4.95;;;3.70;99.90;;;1.84;100.00;102103.44;2568081;30;139885;-40
2021/11/10 03:48:38;;;;;;;13.13;5.18;;;3.70;99.90;;;1.82;100.00;102102.72;2567444;30;140645;-39
2021/11/10 03:51:05;;;;;;;7.85;4.78;;;3.60;99.90;;;1.83;100.00;102093.66;2568742;30;138888;-40
2021/11/10 03:53:37;;;;;;;10.40;5.03;;;3.70;99.90;;;1.79;100.00;102103.81;2566904;30;139998;-40
2021/11/10 03:56:05;;;;;;;8.73;4.55;;;3.60;99.90;;;1.77;100.00;102102.25;2567914;30;138983;-39
2021/11/10 03:58:33;;;;;;;9.93;5.18;;;3.60;99.90;;;1.74;100.00;102108.72;2569862;30;138980;-40
2021/11/10 04:01:01;;;;;;;7.93;4.47;;;3.60;99.90;;;1.74;100.00;102113.25;2569653;30;138973;-39
2021/11/10 04:03:31;;;;;;;9.55;4.93;;;3.60;99.90;;;1.72;100.00;102116.91;2567656;30;141072;-40
2021/11/10 04:06:00;;;;;;;11.77;5.13;;;3.50;99.90;;;1.74;100.00;102105.19;2569430;30;138717;-40
2021/11/10 04:08:29;;;;;;;10.98;5.28;;;3.60;99.90;;;1.71;100.00;102099.03;2570792;30;140024;-39
2021/11/10 04:11:01;;;;;;;10.57;4.68;;;3.60;99.90;;;1.64;100.00;102089.75;2568994;30;138863;-40
2021/11/10 04:13:31;;;;;;;9.27;4.97;;;3.50;99.90;;;1.54;100.00;102089.63;2569074;30;138581;-40
2021/11/10 04:16:01;;;;;;;8.73;4.95;;;3.50;99.90;;;1.55;100.00;102077.88;2568160;30;138766;-39
2021/11/10 04:18:33;;;;;;;9.15;5.40;;;3.50;99.90;;;1.54;100.00;102086.94;2568543;30;139844;-40
2021/11/10 04:21:08;;;;;;;8.93;4.97;;;3.40;99.90;;;1.51;100.00;102080.97;2567582;30;138947;-40
2021/11/10 04:23:36;;;;;;;10.80;4.60;;;3.40;99.90;;;1.48;100.00;102084.75;2570277;30;140343;-40
2021/11/10 04:26:05;;;;;;;10.25;4.80;;;3.30;99.90;;;1.41;100.00;102081.66;2570418;30;139185;-40
2021/11/10 04:28:34;;;;;;;8.95;4.43;;;3.30;99.90;;;1.36;100.00;102091.09;2567181;30;138611;-40
2021/11/10 04:31:02;;;;;;;10.98;4.95;;;3.30;99.90;;;1.25;100.00;102095.47;2569265;30;139862;-39
2021/11/10 04:33:32;;;;;;;7.70;4.60;;;3.20;99.90;;;1.15;100.00;102091.78;2569144;30;139564;-39
2021/11/10 04:36:00;;;;;;;10.27;4.97;;;3.10;99.90;;;1.09;100.00;102095.81;2568950;30;139216;-40
2021/11/10 04:38:30;;;;;;;12.60;5.15;;;3.00;99.90;;;1.02;100.00;102107.16;2565227;30;139805;-40
2021/11/10 04:40:58;;;;;;;9.95;4.82;;;2.90;99.90;;;0.96;100.00;102108.50;2570018;30;139921;-39
2021/11/10 04:43:26;;;;;;;10.73;4.68;;;2.80;99.90;;;0.94;100.00;102102.38;2568511;30;139721;-39
2021/11/10 04:46:05;;;;;;;11.63;4.53;;;2.80;99.90;;;0.93;100.00;102114.94;2567710;30;136714;-39
2021/11/10 04:48:36;;;;;;;9.38;4.85;;;2.80;99.90;;;0.90;100.00;102119.69;2568276;30;139660;-39
2021/11/10 04:51:07;;;;;;;9.98;5.15;;;2.80;99.90;;;0.89;100.00;102118.84;2570122;30;137609;-39
2021/11/10 04:53:38;;;;;;;8.85;4.40;;;2.80;99.90;;;0.89;100.00;102107.22;2569449;30;137991;-39
2021/11/10 04:56:06;;;;;;;8.88;4.38;;;2.80;99.90;;;0.88;100.00;102094.75;2567734;30;137629;-40
2021/11/10 04:58:35;;;;;;;8.82;4.80;;;2.70;99.90;;;0.84;100.00;102084.25;2567140;30;140730;-39
2021/11/10 05:01:03;;;;;;;9.50;4.68;;;2.70;99.90;;;0.78;100.00;102083.84;2570428;30;136725;-39
2021/11/10 05:03:31;;;;;;;9.00;4.80;;;2.70;99.90;;;0.68;100.00;102073.81;2567334;30;138898;-40
2021/11/10 05:05:59;;;;;;;;;;;2.60;99.90;;;0.65;100.00;102086.63;2569473;30;139011;-39
2021/11/10 05:08:27;;;;;;;12.18;5.05;;;2.60;99.90;;;0.61;100.00;102090.50;2568910;30;139909;-39
2021/11/10 05:10:55;;;;;;;7.88;4.35;;;2.50;99.90;;;0.57;100.00;102084.53;2569617;30;137850;-39
2021/11/10 05:13:22;;;;;;;11.57;5.20;;;2.50;99.90;;;0.49;100.00;102084.25;2570102;30;139667;-39
2021/11/10 05:15:50;;;;;;;9.20;4.60;;;2.40;99.90;;;0.41;100.00;102079.47;2570664;30;139279;-40
2021/11/10 05:18:19;;;;;;;7.95;4.53;;;2.30;99.90;;;0.35;100.00;102082.59;2567873;30;139162;-40
2021/11/10 05:20:48;;;;;;;9.70;4.30;;;2.30;99.90;;;0.30;100.00;102074.03;2569759;30;138941;-39
2021/11/10 05:23:16;;;;;;;9.30;4.18;;;2.30;99.90;;;0.23;100.00;102066.44;2566032;30;140011;-40
2021/11/10 05:25:44;;;;;;;10.68;5.35;;;2.20;99.90;;;0.12;100.00;102059.16;2569176;30;137492;-39
2021/11/10 05:28:12;;;;;;;9.77;4.97;;;2.10;99.90;;;0.10;100.00;102061.13;2568971;30;138145;-39
2021/11/10 05:30:39;;;;;;;7.97;4.10;;;2.10;99.90;;;0.06;100.00;102066.81;2568518;30;137655;-40
2021/11/10 05:33:08;;;;;;;8.80;4.20;;;2.00;99.90;;;-0.03;100.00;102060.28;2568498;30;138231;-39
2021/11/10 05:35:35;;;;;;;9.50;3.90;;;1.90;99.90;;;-0.08;100.00;102082.09;2568922;30;138090;-39
2021/11/10 05:38:03;;;;;;;7.72;4.07;;;1.90;99.90;;;-0.15;100.00;102088.88;2569286;30;139885;-40
2021/11/10 05:40:31;;;;;;;7.22;4.00;;;1.80;99.90;;;-0.25;100.00;102080.66;2569242;30;137899;-39
2021/11/10 05:43:00;;;;;;;8.35;4.70;;;1.80;99.90;;;-0.35;100.00;102084.94;2566413;30;138733;-39
2021/11/10 05:45:28;;;;;;;8.88;3.65;;;1.70;99.90;;;-0.29;100.00;102111.31;2570431;30;138154;-40
2021/11/10 05:47:55;;;;;;;7.93;4.82;;;1.70;99.90;;;-0.36;100.00;102115.41;2567894;30;138904;-39
2021/11/10 05:50:23;;;;;;;9.68;4.90;;;1.60;99.90;;;-0.39;100.00;102115.63;2568860;30;136634;-39
2021/11/10 05:52:51;;;;;;;8.00;4.63;;;1.60;99.90;;;-0.38;100.00;102099.44;2569527;30;137401;-39
2021/11/10 05:55:22;;;;;;;7.82;4.25;;;1.60;99.90;;;-0.45;100.00;102090.09;2569361;30;138866;-39
2021/11/10 05:57:50;;;;;;;9.20;4.75;;;1.50;99.90;;;-0.48;100.00;102084.97;2568982;30;139105;-39
2021/11/10 06:00:19;;;;;;;7.22;4.25;;;1.50;99.90;;;-0.52;100.00;102081.66;2567957;30;138658;-40
2021/11/10 06:02:47;;;;;;;8.18;4.30;;;1.50;99.90;;;-0.54;100.00;102086.25;2568657;30;139005;-39
2021/11/10 06:05:17;;;;;;;8.27;4.20;;;1.40;99.90;;;-0.60;100.00;102078.63;2568448;30;138524;-39
2021/11/10 06:07:45;;;;;;;8.13;4.10;;;1.40;99.90;;;-0.65;100.00;102067.38;2569725;30;139475;-39
2021/11/10 06:10:16;;;;;;;8.40;4.28;;;1.30;99.90;;;-0.68;100.00;102067.59;2570920;30;137305;-39
2021/11/10 06:12:45;;;;;;;8.23;4.03;;;1.30;99.90;;;-0.78;100.00;102065.59;2568766;30;138634;-39
2021/11/10 06:15:14;;;;;;;6.85;3.90;;;1.30;99.90;;;-0.79;100.00;102074.59;2570236;30;136758;-40
2021/11/10 06:17:43;;;;;;;7.40;3.60;;;1.20;99.90;;;-0.84;100.00;102082.06;2568256;30;136865;-39
2021/11/10 06:20:12;;;;;;;7.70;4.07;;;1.20;99.90;;;-0.90;100.00;102079.81;2569584;30;137581;-39
2021/11/10 06:22:40;;;;;;;8.38;4.03;;;1.10;99.90;;;-0.95;100.00;102084.66;2573314;30;138349;-40
2021/11/10 06:25:09;;;;;;;8.52;3.90;;;1.10;99.90;;;-0.96;100.00;102074.91;2569104;30;137036;-39
2021/11/10 06:27:38;;;;;;;8.13;4.40;;;1.00;99.90;;;-0.97;100.00;102095.47;2568274;30;140111;-40
2021/11/10 06:30:08;;;;;;;8.80;3.80;;;1.00;99.90;;;-0.98;100.00;102082.19;2571506;30;137132;-39
2021/11/10 06:32:37;;;;;;;7.95;3.95;;;1.00;99.90;;;-0.99;100.00;102075.13;2572087;30;137452;-39
2021/11/10 06:35:05;;;;;;;;;;;1.00;99.90;;;-0.99;100.00;102069.75;2572115;30;137408;-39
2021/11/10 06:37:33;;;;;;;7.90;4.10;;;1.00;99.90;;;-1.00;100.00;102071.56;2569533;30;137464;-39
2021/11/10 06:40:01;;;;;;;;;;;1.00;99.90;;;-1.03;100.00;102074.44;2567869;30;138921;-39
2021/11/10 06:42:28;;;;;;;8.07;4.00;;;1.00;99.90;;;-1.05;100.00;102077.25;2569275;30;137592;-40
2021/11/10 06:44:56;;;;;;;12.82;4.53;;;0.90;99.90;;;-1.04;100.00;102072.75;2568907;30;138474;-40
2021/11/10 06:47:24;;;;;;;6.53;4.00;;;0.90;99.90;;;-1.03;100.00;102071.78;2567212;30;138450;-39
2021/11/10 06:49:52;;;;;;;;;;;0.90;99.90;;;-1.03;100.00;102072.66;2570621;30;137508;-39
2021/11/10 06:52:20;;;;;;;8.23;3.78;;;0.90;99.90;;;-1.03;100.00;102061.94;2569603;30;137446;-40
2021/11/10 06:54:50;;;;;;;8.82;4.60;;;0.90;99.90;;;-1.05;100.00;102053.16;2571378;30;137755;-40
2021/11/10 06:57:21;;;;;;;9.95;4.38;;;0.90;99.90;;;-1.04;100.00;102060.22;2568769;30;137328;-39
2021/11/10 06:59:49;;;;;;;10.27;4.82;;;0.90;99.90;;;-1.03;100.00;102053.91;2568088;30;137829;-40
2021/11/10 07:02:17;;;;;;;11.43;4.55;;;0.90;99.90;;;-1.02;100.00;102060.09;2573065;30;137220;-39
2021/11/10 07:04:44;;;;;;;7.55;4.32;;;0.90;99.90;;;-1.06;100.00;102064.81;2569122;30;138141;-39
2021/11/10 07:07:13;;;;;;;8.25;4.32;;;0.90;99.90;;;-1.05;100.00;102069.22;2569228;30;139120;-40
2021/11/10 07:09:41;;;;;;;8.27;4.32;;;0.90;99.90;;;-1.04;100.00;102076.28;2573209;30;138376;-39
2021/11/10 07:12:10;;;;;;;10.07;4.70;;;0.90;99.90;;;-1.00;100.00;102086.78;2569917;30;138920;-39
2021/11/10 07:14:38;;;;;;;7.90;4.32;;;0.90;99.90;;;-1.02;100.00;102077.03;2569790;30;138168;-39
2021/11/10 07:17:05;;;;;;;;;;;0.90;99.90;;;-0.99;100.00;102080.47;2570576;30;138640;-39
2021/11/10 07:19:34;;;;;;;10.38;4.70;;;0.90;99.90;;;-0.94;100.00;102086.38;2570163;30;137460;-39
2021/11/10 07:22:02;;;;;;;7.65;4.55;;;0.90;99.90;;;-0.98;100.00;102090.22;2573145;30;139248;-39
2021/11/10 07:24:30;;;;;;;7.95;3.95;;;1.00;99.90;;;-0.96;100.00;102086.44;2571119;30;137292;-40
2021/11/10 07:26:58;;;;;;;8.18;4.40;;;1.00;99.90;;;-0.99;100.00;102088.50;2570766;30;138839;-40
2021/11/10 07:29:28;;;;;;;9.60;4.90;;;1.00;99.90;;;-0.98;100.00;102093.75;2566850;30;137975;-39
2021/11/10 07:31:57;;;;;;;7.97;4.22;;;0.90;99.90;;;-0.98;100.00;102092.91;2571169;30;136958;-39
2021/11/10 07:34:24;;;;;;;9.52;4.85;;;0.90;99.90;;;-0.95;100.00;102098.88;2568306;30;136743;-39
2021/11/10 07:36:52;;;;;;;12.05;5.32;;;1.00;99.90;;;-0.91;100.00;102102.22;2569463;30;137419;-39
2021/11/10 07:39:20;;;;;;;8.75;4.93;;;1.00;99.90;;;-0.90;100.00;102107.50;2568872;30;137400;-39
2021/11/10 07:41:50;;;;;;;10.55;5.07;;;1.00;99.90;;;-0.90;100.00;102112.84;2571023;30;138296;-39
2021/11/10 07:44:17;;;;;;;15.77;6.55;;;1.00;99.90;;;-0.84;100.00;102122.28;2570256;30;138536;-38
2021/11/10 07:46:52;;;;;;;11.68;5.35;;;1.00;99.90;;;-0.73;100.00;102122.41;2569771;30;139310;-39
2021/11/10 07:49:21;;;;;;;14.18;5.78;;;1.10;99.90;;;-0.69;100.00;102120.34;2570859;30;137302;-39
2021/11/10 07:51:50;;;;;;;12.77;5.38;;;1.20;99.90;;;-0.66;100.00;102125.53;2568011;30;138886;-39
2021/11/10 07:54:18;;;;;;;13.50;5.78;;;1.20;99.90;;;-0.61;100.00;102122.50;2568945;30;136764;-38
2021/11/10 07:56:45;;;;;;;11.05;5.97;;;1.30;99.90;;;-0.55;100.00;102138.16;2567778;30;138169;-39
2021/11/10 07:59:13;;;;;;;10.25;5.10;;;1.30;99.90;;;-0.51;100.00;102145.03;2568884;30;137528;-40
2021/11/10 08:01:41;;;;;;;11.88;5.80;;;1.30;99.90;;;-0.42;100.00;102142.69;2568235;30;137080;-39
2021/11/10 08:04:09;;;;;;;11.13;5.68;;;1.40;99.90;;;-0.28;100.00;102150.59;2570806;30;137550;-39
2021/11/10 08:06:36;;;;;;;13.60;6.30;;;1.50;99.90;;;-0.18;100.00;102149.00;2570185;30;138721;-40
2021/11/10 08:09:04;;;;;;;13.45;6.53;;;1.60;99.90;;;0.05;100.00;102153.66;2570283;30;136719;-40
2021/11/10 08:11:31;;;;;;;;;;;1.80;99.90;;;0.21;100.00;102153.41;2570272;30;138252;-39
2021/11/10 08:13:59;;;;;;;11.88;5.22;;;1.90;99.90;;;0.48;100.00;102161.28;2570367;30;137205;-40
2021/11/10 08:16:27;;;;;;;11.38;6.03;;;2.10;99.90;;;0.77;100.00;102154.69;2570320;30;138567;-39
2021/11/10 08:18:55;;;;;;;15.45;6.03;;;2.40;99.90;;;1.02;100.00;102148.34;2569307;30;137786;-39
2021/11/10 08:21:27;;;;;;;15.48;5.93;;;2.60;99.90;;;1.26;100.00;102144.75;2567408;30;137405;-39
2021/11/10 08:23:55;;;;;;;;;;;2.80;99.90;;;1.48;100.00;102121.56;2568650;30;137067;-40
2021/11/10 08:26:22;;;;;;;12.32;5.53;;;3.00;99.90;;;1.67;100.00;102129.03;2569565;30;139234;-40
2021/11/10 08:28:50;;;;;;;11.40;5.70;;;3.20;99.90;;;1.90;100.00;102127.19;2570165;30;138366;-40
2021/11/10 08:31:18;;;;;;;12.77;6.28;;;3.40;99.90;;;2.03;100.00;102128.88;2569651;30;139095;-40
2021/11/10 08:33:45;;;;;;;13.30;6.55;;;3.50;99.90;;;2.25;100.00;102133.38;2571319;30;137718;-40
2021/11/10 08:36:13;;;;;;;14.68;6.78;;;3.80;99.90;;;2.43;100.00;102129.19;2568701;30;139394;-39
2021/11/10 08:38:40;;;;;;;16.38;6.90;;;3.90;99.90;;;2.57;100.00;102135.25;2569211;30;138221;-39
2021/11/10 08:41:08;;;;;;;18.02;7.50;;;4.10;99.90;;;2.68;100.00;102139.75;2568940;30;138381;-40
2021/11/10 08:43:36;;;;;;;14.40;6.43;;;4.20;99.90;;;2.75;100.00;102140.09;2568594;30;137333;-39
2021/11/10 08:46:04;;;;;;;11.73;6.35;;;4.30;99.90;;;2.80;100.00;102154.03;2567564;30;138137;-39
2021/11/10 08:48:31;;;;;;;10.23;6.20;;;4.40;99.90;;;2.84;100.00;102150.97;2569671;30;137555;-39
2021/11/10 08:50:59;;;;;;;12.45;6.45;;;4.40;99.90;;;2.89;100.00;102153.25;2565717;30;139608;-39
2021/11/10 08:53:27;;;;;;;12.07;6.32;;;4.50;99.90;;;2.90;100.00;102149.56;2568791;30;137734;-39
2021/11/10 08:55:57;;;;;;;13.90;6.47;;;4.50;99.90;;;2.93;100.00;102152.03;2568127;30;137332;-39
2021/11/10 08:58:27;;;;;;;16.00;6.75;;;4.60;99.90;;;2.90;100.00;102137.94;2570373;30;137717;-39
2021/11/10 09:00:57;;;;;;;12.57;6.60;;;4.60;99.90;;;3.06;100.00;102161.78;2568582;30;138659;-40
2021/11/10 09:03:28;;;;;;;15.07;7.60;;;4.70;99.90;;;3.15;100.00;102163.69;2570242;30;137342;-39
2021/11/10 09:05:57;;;;;;;13.77;6.75;;;4.70;99.90;;;3.21;100.00;102156.91;2569514;30;138972;-40
2021/11/10 09:08:26;;;;;;;11.48;6.97;;;4.80;99.90;;;3.26;100.00;102154.66;2569134;30;136987;-39
2021/11/10 09:10:55;;;;;;;13.80;7.18;;;4.90;99.90;;;3.30;100.00;102156.13;2568448;30;139210;-40
2021/11/10 09:13:24;;;;;;;14.48;7.70;;;4.90;99.90;;;3.34;100.00;102157.59;2572403;30;137903;-40
2021/11/10 09:15:52;;;;;;;12.48;7.10;;;4.90;99.90;;;3.38;100.00;102166.25;2566889;30;137394;-39
2021/11/10 09:18:20;;;;;;;;;;;5.00;99.90;;;3.42;100.00;102163.16;2567683;30;136951;-39
2021/11/10 09:20:47;;;;;;;17.95;7.50;;;5.00;99.90;;;3.49;100.00;102152.72;2566970;30;137344;-39
2021/11/10 09:23:17;;;;;;;15.65;7.68;;;5.10;99.90;;;3.55;100.00;102135.97;2567151;30;137548;-39
2021/11/10 09:25:46;;;;;;;14.88;8.07;;;5.10;99.90;;;3.68;100.00;102134.88;2568224;30;138399;-39
2021/11/10 09:28:19;;;;;;;14.60;7.60;;;5.20;99.90;;;3.77;100.00;102138.63;2568354;30;136678;-39
2021/11/10 09:30:51;;;;;;;13.43;7.60;;;5.30;99.90;;;3.85;100.00;102141.53;2567336;30;137530;-39
2021/11/10 09:33:21;;;;;;;14.27;7.30;;;5.40;99.90;;;3.94;99.75;102150.63;2567305;30;138307;-39
2021/11/10 09:35:52;;;;;;;12.13;7.35;;;5.50;99.90;;;4.04;99.30;102143.44;2568310;30;137776;-39
2021/11/10 09:38:22;;;;;;;15.70;7.88;;;5.60;99.90;;;4.14;98.99;102138.91;2567044;30;136730;-39
2021/11/10 09:40:51;;;;;;;15.82;7.32;;;5.60;99.90;;;4.27;98.85;102129.72;2567929;30;138187;-39
2021/11/10 09:43:19;;;;;;;16.30;8.05;;;5.70;99.90;;;4.35;98.19;102132.56;2567244;30;138484;-39
2021/11/10 09:45:47;;;;;;;15.38;7.38;;;5.80;99.90;;;4.49;97.92;102130.44;2567349;30;138563;-39
2021/11/10 09:48:16;;;;;;;15.18;8.68;;;5.90;99.90;;;4.58;97.36;102135.03;2567712;30;138366;-39
2021/11/10 09:50:47;;;;;;;16.88;8.27;;;6.00;99.90;;;4.66;97.18;102135.16;2568063;30;137463;-39
2021/11/10 09:53:16;;;;;;;17.50;8.43;;;6.20;99.90;;;4.81;96.76;102138.31;2567119;30;137474;-39
2021/11/10 09:55:45;;;;;;;13.25;7.82;;;6.30;99.90;;;4.89;95.28;102138.44;2564742;30;138633;-39
2021/11/10 09:58:14;;;;;;;18.02;8.40;;;6.30;99.90;;;4.95;94.07;102138.88;2567016;30;137564;-39
2021/11/10 10:00:56;;;;;;;14.68;7.70;;;6.40;99.90;;;5.04;94.05;102135.31;2568732;30;138354;-39
2021/11/10 10:03:24;;;;;;;13.52;8.02;;;6.50;99.90;;;5.14;93.18;102129.88;2568928;30;136882;-39
2021/11/10 10:05:56;;;;;;;13.57;7.78;;;6.60;99.90;;;5.27;93.92;102130.41;2568796;30;136849;-39
2021/11/10 10:08:24;;;;;;;15.30;8.40;;;6.70;99.90;;;5.44;93.81;102130.69;2569357;30;137770;-39
2021/11/10 10:10:52;;;;;;;19.17;7.97;;;6.80;99.90;;;5.64;92.12;102130.63;2568977;30;137658;-39
2021/11/10 10:13:21;;;;;;;15.65;8.32;;;6.90;99.90;;;5.89;92.11;102123.69;2568942;30;137535;-39
2021/11/10 10:15:51;;;;;;;16.35;8.60;;;7.10;99.90;;;6.04;90.29;102124.06;2565096;30;139185;-39
2021/11/10 10:18:29;;;;;;;18.05;8.50;;;7.30;99.90;;;6.25;87.71;102128.38;2567997;30;137291;-39
2021/11/10 10:21:07;;;;;;;17.85;8.68;;;7.50;99.90;;;6.48;88.80;102121.53;2568356;30;138031;-39